Time;durP1;ratioP1;P1;durP2;ratioP2;P2;SDS_P1;SDS_P2;PMS_P1;PMS_P2;Temp;Humidity;BMP_temperature;BMP_pressure;BME280_temperature;BME280_humidity;BME280_pressure;Samples;Min_cycle;Max_cycle;Signal;HPM_P1;HPM_P2
2022/10/04 00:01:44;;;;;;;11.10;8.52;;;9.10;99.90;;;;;;5019349;28;20647;-69
2022/10/04 00:04:11;;;;;;;10.23;8.15;;;9.10;99.90;;;;;;5032467;28;20190;-70
2022/10/04 00:06:48;;;;;;;12.70;9.07;;;9.10;99.90;;;;;;5022850;28;20279;-69
2022/10/04 00:09:22;;;;;;;12.35;9.88;;;9.10;99.90;;;;;;5030194;28;20265;-69
2022/10/04 00:11:51;;;;;;;12.55;10.43;;;9.30;99.90;;;;;;5023422;28;20198;-70
2022/10/04 00:14:19;;;;;;;14.68;8.80;;;9.10;99.90;;;;;;5029114;28;20202;-68
2022/10/04 00:16:45;;;;;;;10.82;9.50;;;9.30;99.90;;;;;;5027266;28;20214;-68
2022/10/04 00:19:14;;;;;;;11.60;9.20;;;9.30;99.90;;;;;;5031436;28;20234;-68
2022/10/04 00:21:55;;;;;;;11.57;10.18;;;9.00;99.90;;;;;;5026581;28;20204;-69
2022/10/04 00:24:31;;;;;;;13.07;10.13;;;9.10;99.90;;;;;;5038594;28;20181;-69
2022/10/04 00:27:15;;;;;;;12.07;9.55;;;9.00;99.90;;;;;;5031571;28;20212;-69
2022/10/04 00:29:41;;;;;;;10.95;9.80;;;9.00;99.90;;;;;;5038238;28;20191;-70
2022/10/04 00:32:09;;;;;;;11.40;9.30;;;9.10;99.90;;;;;;5035811;28;20182;-68
2022/10/04 00:34:35;;;;;;;12.25;9.15;;;9.10;99.90;;;;;;5019431;28;20187;-69
2022/10/04 00:37:12;;;;;;;15.93;9.77;;;9.00;99.90;;;;;;5041556;28;20186;-68
2022/10/04 00:39:43;;;;;;;9.68;8.60;;;8.90;99.90;;;;;;5045920;28;20213;-68
2022/10/04 00:42:16;;;;;;;12.15;9.90;;;8.90;99.90;;;;;;5027341;28;20198;-68
2022/10/04 00:44:52;;;;;;;13.90;9.07;;;8.80;99.90;;;;;;5014388;28;20648;-69
2022/10/04 00:47:46;;;;;;;10.50;9.50;;;8.90;99.90;;;;;;5024628;28;20499;-70
2022/10/04 00:50:16;;;;;;;10.93;9.65;;;9.10;99.90;;;;;;5005729;28;20206;-69
2022/10/04 00:52:46;;;;;;;11.27;10.05;;;8.80;99.90;;;;;;5031949;28;20175;-69
2022/10/04 00:55:25;;;;;;;10.68;8.65;;;8.80;99.90;;;;;;5033599;28;20344;-70
2022/10/04 00:57:58;;;;;;;9.30;7.60;;;8.60;99.90;;;;;;5028527;28;20651;-69
2022/10/04 01:00:24;;;;;;;11.90;9.40;;;8.70;99.90;;;;;;5028086;28;20236;-69
2022/10/04 01:02:59;;;;;;;14.90;10.10;;;9.00;99.90;;;;;;5031628;28;20207;-69
2022/10/04 01:05:29;;;;;;;13.60;10.10;;;8.80;99.90;;;;;;5022134;28;20198;-69
2022/10/04 01:08:03;;;;;;;12.90;9.07;;;9.10;99.90;;;;;;5029744;28;20179;-69
2022/10/04 01:10:58;;;;;;;11.60;8.82;;;8.80;99.90;;;;;;5025034;28;20186;-69
2022/10/04 01:13:38;;;;;;;10.35;8.25;;;8.90;99.90;;;;;;5006499;28;20207;-70
2022/10/04 01:16:17;;;;;;;10.20;9.10;;;9.00;99.90;;;;;;5030676;28;20210;-69
2022/10/04 01:18:43;;;;;;;11.18;8.73;;;8.60;99.90;;;;;;5030283;28;20186;-69
2022/10/04 01:21:18;;;;;;;9.18;8.23;;;8.60;99.90;;;;;;5033406;28;20208;-69
2022/10/04 01:23:51;;;;;;;11.52;7.85;;;8.60;99.90;;;;;;5035101;28;20561;-69
2022/10/04 01:26:25;;;;;;;8.98;7.40;;;8.60;99.90;;;;;;5025063;28;20199;-68
2022/10/04 01:28:52;;;;;;;12.55;9.20;;;8.70;99.90;;;;;;5029738;28;20189;-68
2022/10/04 01:31:18;;;;;;;10.75;7.95;;;8.50;99.90;;;;;;5030773;28;20209;-68
2022/10/04 01:33:45;;;;;;;10.13;7.27;;;8.00;99.90;;;;;;5031268;28;20655;-67
2022/10/04 01:36:11;;;;;;;9.38;8.18;;;8.60;99.90;;;;;;5029367;28;20210;-68
2022/10/04 01:38:36;;;;;;;8.73;7.57;;;8.50;99.90;;;;;;5025762;28;20197;-68
2022/10/04 01:41:05;;;;;;;10.83;7.50;;;8.50;99.90;;;;;;5024627;28;20453;-68
2022/10/04 01:43:36;;;;;;;8.80;7.38;;;8.50;99.90;;;;;;5029576;28;20685;-68
2022/10/04 01:46:09;;;;;;;10.45;7.63;;;8.60;99.90;;;;;;5030397;28;20234;-68
2022/10/04 01:48:37;;;;;;;8.20;7.40;;;8.30;99.90;;;;;;5029565;28;20193;-67
2022/10/04 01:51:17;;;;;;;10.25;8.48;;;8.20;99.90;;;;;;5019295;28;20257;-68
2022/10/04 01:54:06;;;;;;;9.30;8.35;;;8.40;99.90;;;;;;5026857;28;20185;-68
2022/10/04 01:56:48;;;;;;;9.13;8.00;;;8.30;99.90;;;;;;5029006;28;20206;-68
2022/10/04 01:59:26;;;;;;;9.65;8.30;;;8.40;99.90;;;;;;5029684;28;20205;-66
2022/10/04 02:01:55;;;;;;;9.18;8.27;;;8.30;99.90;;;;;;5019672;28;20189;-68
2022/10/04 02:04:26;;;;;;;7.95;7.15;;;8.30;99.90;;;;;;5045558;28;20181;-68
2022/10/04 02:06:55;;;;;;;16.55;8.45;;;8.30;99.90;;;;;;5035348;28;20240;-67
2022/10/04 02:09:48;;;;;;;9.65;8.20;;;8.10;99.90;;;;;;5020568;28;20194;-68
2022/10/04 02:12:17;;;;;;;8.95;7.95;;;8.30;99.90;;;;;;5024630;28;20191;-67
2022/10/04 02:14:51;;;;;;;8.93;8.05;;;8.30;99.90;;;;;;5028233;28;20218;-68
2022/10/04 02:17:23;;;;;;;8.88;7.97;;;8.20;99.90;;;;;;5045886;28;20181;-67
2022/10/04 02:19:49;;;;;;;8.55;7.65;;;8.30;99.90;;;;;;5043156;28;20221;-67
2022/10/04 02:22:15;;;;;;;10.40;8.02;;;8.40;99.90;;;;;;5036826;28;20254;-67
2022/10/04 02:24:45;;;;;;;9.43;8.40;;;8.20;99.90;;;;;;5039217;28;20666;-67
2022/10/04 02:27:11;;;;;;;11.43;8.15;;;8.20;99.90;;;;;;5021025;28;20600;-67
2022/10/04 02:29:37;;;;;;;11.15;7.90;;;8.20;99.90;;;;;;5037217;28;20220;-67
2022/10/04 02:34:50;;;;;;;10.52;8.57;;;8.20;99.90;;;;;;5036491;28;20197;-67
2022/10/04 02:37:17;;;;;;;10.18;9.13;;;8.30;99.90;;;;;;5040891;28;20194;-67
2022/10/04 02:39:47;;;;;;;8.70;7.80;;;8.00;99.90;;;;;;5014986;28;20190;-67
2022/10/04 02:42:22;;;;;;;11.55;8.55;;;8.20;99.90;;;;;;5019398;28;20190;-67
2022/10/04 02:44:51;;;;;;;11.15;9.38;;;8.30;99.90;;;;;;5021492;28;20221;-67
2022/10/04 02:47:24;;;;;;;8.93;8.02;;;8.00;99.90;;;;;;5036856;28;20185;-67
2022/10/04 02:50:03;;;;;;;10.45;8.45;;;8.20;99.90;;;;;;5029113;28;20194;-67
2022/10/04 02:52:35;;;;;;;10.70;9.45;;;8.30;99.90;;;;;;5024840;28;20182;-67
2022/10/04 02:55:05;;;;;;;9.20;8.27;;;8.30;99.90;;;;;;5036328;28;20217;-68
2022/10/04 02:57:33;;;;;;;9.68;8.68;;;8.30;99.90;;;;;;5020006;28;20194;-67
2022/10/04 03:00:09;;;;;;;10.23;9.20;;;8.30;99.90;;;;;;5037638;28;20213;-68
2022/10/04 03:02:35;;;;;;;11.98;9.98;;;8.40;99.90;;;;;;5037238;28;20182;-68
2022/10/04 03:05:10;;;;;;;10.13;8.90;;;8.40;99.90;;;;;;5048774;28;20208;-68
2022/10/04 03:07:38;;;;;;;10.07;8.50;;;8.60;99.90;;;;;;5018196;28;20406;-68
2022/10/04 03:10:12;;;;;;;10.50;9.48;;;8.40;99.90;;;;;;5028543;28;20179;-68
2022/10/04 03:12:39;;;;;;;11.27;8.43;;;8.40;99.90;;;;;;5016988;28;20277;-68
2022/10/04 03:15:09;;;;;;;10.00;9.00;;;8.40;99.90;;;;;;5028542;28;20276;-68
2022/10/04 03:17:35;;;;;;;9.27;8.30;;;8.20;99.90;;;;;;5028902;28;20182;-68
2022/10/04 03:20:02;;;;;;;9.70;8.68;;;8.40;99.90;;;;;;5028562;28;20289;-68
2022/10/04 03:22:28;;;;;;;10.43;9.43;;;8.20;99.90;;;;;;5031583;28;20202;-68
2022/10/04 03:24:56;;;;;;;10.33;9.30;;;8.30;99.90;;;;;;5033270;28;20206;-68
2022/10/04 03:27:27;;;;;;;12.07;8.00;;;8.40;99.90;;;;;;5026070;28;20182;-68
2022/10/04 03:29:54;;;;;;;10.05;9.02;;;7.90;99.90;;;;;;5032268;28;20599;-68
2022/10/04 03:32:20;;;;;;;10.73;8.23;;;8.20;99.90;;;;;;5033072;28;20675;-68
2022/10/04 03:35:00;;;;;;;9.27;8.35;;;8.50;99.90;;;;;;5029746;28;20191;-68
2022/10/04 03:37:29;;;;;;;8.63;7.55;;;8.30;99.90;;;;;;5033038;28;20273;-68
2022/10/04 03:39:56;;;;;;;9.43;8.43;;;8.30;99.90;;;;;;5031594;28;20221;-68
2022/10/04 03:42:26;;;;;;;12.25;8.38;;;8.20;99.90;;;;;;5028664;28;20190;-68
2022/10/04 03:44:55;;;;;;;9.63;8.02;;;8.30;99.90;;;;;;5032960;28;20257;-68
2022/10/04 03:47:32;;;;;;;12.25;9.27;;;8.40;99.90;;;;;;5032558;28;20233;-68
2022/10/04 03:50:03;;;;;;;10.18;9.00;;;8.10;99.90;;;;;;5027700;28;20175;-68
2022/10/04 03:52:34;;;;;;;11.15;7.90;;;8.30;99.90;;;;;;5028736;28;20232;-68
2022/10/04 03:55:04;;;;;;;8.15;7.13;;;8.30;99.90;;;;;;5036800;28;20214;-68
2022/10/04 03:57:30;;;;;;;9.18;8.27;;;8.20;99.90;;;;;;5034018;28;20193;-68
2022/10/04 03:59:58;;;;;;;10.52;9.13;;;8.10;99.90;;;;;;5042747;28;20579;-68
2022/10/04 04:02:34;;;;;;;11.45;9.27;;;8.20;99.90;;;;;;5023805;28;20217;-68
2022/10/04 04:05:30;;;;;;;18.55;9.10;;;8.10;99.90;;;;;;5021187;28;20195;-68
2022/10/04 04:08:21;;;;;;;10.35;9.35;;;8.10;99.90;;;;;;5030031;28;20554;-69
2022/10/04 04:10:51;;;;;;;10.18;9.18;;;7.90;99.90;;;;;;5031424;28;20526;-68
2022/10/04 04:13:43;;;;;;;8.35;7.45;;;8.30;99.90;;;;;;5031926;28;20182;-68
2022/10/04 04:16:10;;;;;;;9.13;8.18;;;8.30;99.90;;;;;;5029144;28;20206;-68
2022/10/04 04:18:39;;;;;;;9.27;8.10;;;8.30;99.90;;;;;;5042252;28;20186;-68
2022/10/04 04:21:06;;;;;;;9.90;8.35;;;8.40;99.90;;;;;;5027185;28;20190;-69
2022/10/04 04:23:40;;;;;;;9.00;7.13;;;8.10;99.90;;;;;;5025978;28;20260;-68
2022/10/04 04:26:26;;;;;;;8.65;7.38;;;8.30;99.90;;;;;;5018594;28;20206;-69
2022/10/04 04:29:07;;;;;;;8.65;7.15;;;8.40;99.90;;;;;;5032089;28;20247;-68
2022/10/04 04:31:49;;;;;;;20.05;13.27;;;8.20;99.90;;;;;;5034167;28;20182;-68
2022/10/04 04:34:28;;;;;;;10.75;8.23;;;8.40;99.90;;;;;;5040752;28;20192;-68
2022/10/04 04:37:01;;;;;;;8.82;7.30;;;8.30;99.90;;;;;;5041544;28;20205;-68
2022/10/04 04:39:39;;;;;;;9.52;8.15;;;8.30;99.90;;;;;;5026815;28;20325;-69
2022/10/04 04:42:15;;;;;;;10.43;7.97;;;8.10;99.90;;;;;;5023993;28;20265;-69
2022/10/04 04:44:48;;;;;;;10.68;8.30;;;8.30;99.90;;;;;;5029323;28;20270;-68
2022/10/04 04:47:41;;;;;;;9.35;7.40;;;8.20;99.90;;;;;;5031383;28;20198;-69
2022/10/04 04:50:12;;;;;;;9.38;7.95;;;8.40;99.90;;;;;;5028970;28;20210;-69
2022/10/04 04:52:38;;;;;;;9.15;8.25;;;8.20;99.90;;;;;;5025067;28;20194;-69
2022/10/04 04:55:14;;;;;;;10.15;8.00;;;8.30;99.90;;;;;;5028337;28;20257;-69
2022/10/04 04:57:43;;;;;;;11.35;8.30;;;8.20;99.90;;;;;;5024152;28;20197;-68
2022/10/04 05:00:22;;;;;;;9.43;8.32;;;8.20;99.90;;;;;;5023882;28;20205;-67
2022/10/04 05:02:56;;;;;;;8.48;7.63;;;8.10;99.90;;;;;;5031761;28;20928;-68
2022/10/04 05:05:30;;;;;;;9.00;7.40;;;8.50;99.90;;;;;;5034663;28;20685;-67
2022/10/04 05:08:10;;;;;;;9.88;7.97;;;8.30;99.90;;;;;;5034312;28;20186;-66
2022/10/04 05:10:39;;;;;;;9.70;8.30;;;8.30;99.90;;;;;;5026285;28;20186;-67
2022/10/04 05:13:07;;;;;;;9.32;8.38;;;8.10;99.90;;;;;;5029308;28;20248;-68
2022/10/04 05:15:35;;;;;;;8.95;8.05;;;8.20;99.90;;;;;;5030727;28;20640;-68
2022/10/04 05:18:25;;;;;;;12.27;8.38;;;8.10;99.90;;;;;;5022335;28;20186;-68
2022/10/04 05:20:53;;;;;;;8.77;7.85;;;7.80;99.90;;;;;;5029278;28;20206;-66
2022/10/04 05:23:18;;;;;;;11.20;8.85;;;7.90;99.90;;;;;;5027179;28;20183;-74
2022/10/04 05:25:44;;;;;;;14.43;8.50;;;7.90;99.90;;;;;;5021456;28;20285;-67
2022/10/04 05:28:14;;;;;;;13.23;8.40;;;8.00;99.90;;;;;;5024971;28;20232;-67
2022/10/04 05:30:52;;;;;;;8.05;6.88;;;8.20;99.90;;;;;;5029229;28;20459;-67
2022/10/04 05:33:52;;;;;;;10.30;9.40;;;8.30;99.90;;;;;;5028837;28;20438;-67
2022/10/04 05:36:43;;;;;;;8.43;7.25;;;7.90;99.90;;;;;;5041910;28;20229;-66
2022/10/04 05:39:36;;;;;;;9.68;8.52;;;8.10;99.90;;;;;;5027780;28;20207;-65
2022/10/04 05:42:11;;;;;;;10.32;8.48;;;8.30;99.90;;;;;;5026829;28;20178;-63
2022/10/04 05:44:49;;;;;;;12.15;7.60;;;8.30;99.90;;;;;;5027013;28;20177;-66
2022/10/04 05:47:15;;;;;;;8.75;7.20;;;8.40;99.90;;;;;;5027094;28;20193;-65
2022/10/04 05:49:45;;;;;;;11.30;7.65;;;8.20;99.90;;;;;;5026914;28;20192;-66
2022/10/04 05:52:23;;;;;;;17.75;11.18;;;8.70;99.90;;;;;;5026082;28;20205;-67
2022/10/04 05:55:30;;;;;;;9.68;8.68;;;8.10;99.90;;;;;;5026967;28;20703;-67
2022/10/04 05:58:36;;;;;;;9.68;7.70;;;8.20;99.90;;;;;;5022208;28;20190;-68
2022/10/04 06:01:29;;;;;;;8.60;7.13;;;8.30;99.90;;;;;;5023138;28;20569;-71
2022/10/04 06:04:08;;;;;;;8.63;7.63;;;8.30;99.90;;;;;;5013560;28;20190;-69
2022/10/04 06:06:52;;;;;;;9.48;7.65;;;8.40;99.90;;;;;;5028768;28;21137;-70
2022/10/04 06:09:39;;;;;;;7.68;6.80;;;8.60;99.90;;;;;;5027458;28;20209;-71
2022/10/04 06:12:12;;;;;;;9.13;8.23;;;8.60;99.90;;;;;;5029228;28;20265;-71
2022/10/04 06:14:53;;;;;;;12.90;7.63;;;8.80;99.90;;;;;;5028978;28;20617;-58
2022/10/04 06:17:25;;;;;;;8.18;7.38;;;8.90;99.90;;;;;;5024945;28;20198;-57
2022/10/04 06:20:13;;;;;;;8.63;7.18;;;8.90;99.90;;;;;;5024952;28;20203;-56
2022/10/04 06:22:59;;;;;;;8.52;7.60;;;9.10;99.90;;;;;;5028585;28;20205;-55
2022/10/04 06:25:38;;;;;;;7.65;6.70;;;8.70;99.90;;;;;;5024485;28;20194;-57
2022/10/04 06:28:10;;;;;;;10.80;7.07;;;9.20;99.90;;;;;;5024465;28;20666;-65
2022/10/04 06:31:04;;;;;;;9.93;7.65;;;9.00;99.90;;;;;;5026588;28;20721;-61
2022/10/04 06:33:53;;;;;;;8.93;7.50;;;9.20;99.90;;;;;;5025909;28;20190;-63
2022/10/04 06:36:56;;;;;;;7.90;7.10;;;9.20;99.90;;;;;;5028319;28;20286;-64
2022/10/04 06:39:31;;;;;;;8.90;7.63;;;9.20;99.90;;;;;;5025205;28;20336;-62
2022/10/04 06:42:32;;;;;;;8.05;7.22;;;9.40;99.90;;;;;;5026487;28;20209;-63
2022/10/04 06:45:36;;;;;;;10.63;7.93;;;9.90;99.90;;;;;;5028774;28;20206;-67
2022/10/04 06:48:22;;;;;;;8.13;7.32;;;9.50;99.90;;;;;;5027122;28;20186;-64
2022/10/04 06:51:13;;;;;;;8.63;7.22;;;9.50;99.90;;;;;;5024189;28;20186;-62
2022/10/04 06:54:02;;;;;;;9.20;6.85;;;9.70;99.90;;;;;;5023521;28;20190;-62
2022/10/04 06:56:52;;;;;;;9.85;7.72;;;10.10;99.90;;;;;;5035910;28;20210;-62
2022/10/04 06:59:25;;;;;;;9.60;6.75;;;10.10;99.90;;;;;;5028160;28;20237;-62
2022/10/04 07:01:57;;;;;;;7.40;6.40;;;10.00;99.90;;;;;;5031701;28;20320;-63
2022/10/04 07:04:23;;;;;;;8.60;7.05;;;10.40;99.90;;;;;;5029959;28;20328;-66
2022/10/04 07:07:34;;;;;;;7.40;6.67;;;10.30;99.90;;;;;;5029908;28;20305;-62
2022/10/04 07:10:10;;;;;;;10.13;6.75;;;10.40;99.90;;;;;;5031632;28;20278;-64
2022/10/04 07:12:41;;;;;;;8.60;6.85;;;10.60;99.90;;;;;;5024637;28;20195;-63
2022/10/04 07:15:27;;;;;;;7.63;6.78;;;10.70;99.90;;;;;;5028429;28;20206;-63
2022/10/04 07:17:56;;;;;;;8.82;6.75;;;10.70;99.90;;;;;;5031307;28;20255;-63
2022/10/04 07:20:30;;;;;;;7.55;6.22;;;10.80;99.90;;;;;;5026226;28;20207;-61
2022/10/04 07:23:21;;;;;;;7.28;5.97;;;11.00;99.90;;;;;;5030209;28;20189;-61
2022/10/04 07:25:53;;;;;;;7.85;6.32;;;11.20;99.90;;;;;;5019041;28;20210;-63
2022/10/04 07:31:28;;;;;;;8.10;6.05;;;11.20;99.90;;;;;;5031106;28;20191;-65
2022/10/04 07:34:09;;;;;;;11.07;6.57;;;11.30;99.90;;;;;;5032962;28;20528;-63
2022/10/04 07:36:45;;;;;;;8.68;6.15;;;11.70;99.90;;;;;;5027971;28;20204;-64
2022/10/04 07:39:16;;;;;;;9.18;6.18;;;11.80;99.90;;;;;;5031708;28;20200;-65
2022/10/04 07:41:50;;;;;;;7.88;6.18;;;11.90;99.90;;;;;;5028797;28;20194;-64
2022/10/04 07:44:30;;;;;;;10.38;6.65;;;12.00;99.90;;;;;;5032311;28;20924;-65
2022/10/04 07:47:08;;;;;;;9.38;7.70;;;12.20;99.90;;;;;;5031837;28;20214;-65
2022/10/04 07:49:39;;;;;;;9.23;7.57;;;12.40;99.90;;;;;;5028103;28;20299;-61
2022/10/04 07:52:17;;;;;;;7.55;6.82;;;12.00;99.90;;;;;;5026989;28;20678;-65
2022/10/04 07:55:16;;;;;;;11.63;9.82;;;12.40;99.90;;;;;;5026444;28;20553;-63
2022/10/04 07:58:01;;;;;;;8.70;7.45;;;12.30;99.90;;;;;;5032348;28;20254;-63
2022/10/04 08:00:42;;;;;;;12.30;7.45;;;12.10;99.90;;;;;;5025437;28;20242;-64
2022/10/04 08:03:19;;;;;;;9.52;7.28;;;12.10;99.90;;;;;;5030985;28;20181;-67
2022/10/04 08:06:13;;;;;;;8.65;7.38;;;12.20;99.90;;;;;;5030633;28;20343;-62
2022/10/04 08:08:54;;;;;;;11.88;8.25;;;12.60;99.90;;;;;;5008712;28;20252;-60
2022/10/04 08:11:30;;;;;;;11.20;8.30;;;12.50;99.90;;;;;;5015277;28;20587;-61
2022/10/04 08:14:29;;;;;;;8.15;7.13;;;12.70;99.90;;;;;;5022746;28;20223;-63
2022/10/04 08:17:25;;;;;;;9.30;8.40;;;12.80;99.90;;;;;;5026435;28;20228;-62
2022/10/04 08:20:19;;;;;;;11.07;8.32;;;13.10;99.90;;;;;;5030239;28;20213;-62
2022/10/04 08:22:59;;;;;;;10.43;9.43;;;13.20;99.90;;;;;;5031333;28;20186;-65
2022/10/04 08:25:27;;;;;;;9.05;7.60;;;13.30;99.90;;;;;;5029100;28;20221;-63
2022/10/04 08:31:20;;;;;;;9.35;7.60;;;13.40;99.90;;;;;;5002022;28;20194;-63
2022/10/04 08:34:17;;;;;;;8.05;7.40;;;13.70;99.90;;;;;;5030873;28;20548;-65
2022/10/04 08:36:58;;;;;;;7.63;6.60;;;13.40;99.90;;;;;;5027540;28;20324;-65
2022/10/04 08:39:57;;;;;;;14.02;12.60;;;13.50;99.90;;;;;;5028750;28;20659;-66
2022/10/04 08:42:46;;;;;;;8.98;8.07;;;14.00;99.90;;;;;;5025886;28;20297;-66
2022/10/04 08:45:42;;;;;;;8.68;7.75;;;14.20;99.90;;;;;;5026014;28;20690;-66
2022/10/04 08:48:23;;;;;;;11.57;7.90;;;14.20;99.90;;;;;;5027104;28;20201;-66
2022/10/04 08:51:26;;;;;;;10.45;7.43;;;14.40;99.90;;;;;;5029375;28;20205;-66
2022/10/04 08:54:05;;;;;;;8.93;6.72;;;14.60;99.90;;;;;;5028984;28;20220;-66
2022/10/04 08:56:57;;;;;;;9.20;6.85;;;14.70;99.90;;;;;;5030308;28;20256;-67
2022/10/04 08:59:44;;;;;;;11.93;7.88;;;14.70;99.90;;;;;;5029431;28;20288;-67
2022/10/04 09:02:12;;;;;;;9.70;6.45;;;15.00;99.90;;;;;;5028651;28;20177;-71
2022/10/04 09:05:19;;;;;;;13.75;6.22;;;14.70;99.90;;;;;;5029150;28;20232;-70
2022/10/04 09:08:08;;;;;;;6.70;6.10;;;15.10;99.90;;;;;;5026040;28;20627;-71
2022/10/04 09:10:39;;;;;;;8.55;6.63;;;15.10;99.90;;;;;;5029209;28;20198;-69
2022/10/04 09:13:33;;;;;;;9.93;6.50;;;15.10;99.90;;;;;;5026560;28;20265;-68
2022/10/04 09:16:07;;;;;;;10.80;7.53;;;15.00;99.90;;;;;;5028407;28;20210;-72
2022/10/04 09:18:48;;;;;;;9.82;7.07;;;14.80;99.90;;;;;;5028696;28;20623;-64
2022/10/04 09:21:42;;;;;;;12.35;6.85;;;14.80;99.90;;;;;;5029517;28;20226;-64
2022/10/04 09:24:24;;;;;;;8.15;6.80;;;15.10;99.90;;;;;;5023360;28;20614;-64
2022/10/04 09:27:27;;;;;;;7.68;6.80;;;15.50;99.90;;;;;;5026555;28;20209;-65
2022/10/04 09:30:15;;;;;;;8.25;7.10;;;16.40;99.90;;;;;;5028071;28;20192;-65
2022/10/04 09:33:03;;;;;;;10.05;4.35;;;16.80;98.70;;;;;;5028772;28;20190;-65
2022/10/04 09:35:51;;;;;;;4.60;4.20;;;17.90;97.00;;;;;;5028512;28;20206;-66
2022/10/04 09:38:17;;;;;;;5.30;4.78;;;18.10;95.00;;;;;;5029392;28;20601;-68
2022/10/04 09:41:05;;;;;;;6.27;4.53;;;18.40;93.70;;;;;;5021187;28;20213;-69
2022/10/04 09:43:35;;;;;;;6.25;3.90;;;18.50;93.10;;;;;;5021851;28;20264;-69
2022/10/04 09:46:14;;;;;;;5.63;3.80;;;18.40;92.70;;;;;;5028763;28;20209;-68
2022/10/04 09:48:52;;;;;;;4.45;3.83;;;18.50;92.40;;;;;;5021243;28;20554;-69
2022/10/04 09:52:00;;;;;;;4.95;3.47;;;18.40;92.50;;;;;;5028788;28;20185;-69
2022/10/04 09:54:44;;;;;;;4.95;3.35;;;18.30;92.70;;;;;;5025025;28;20177;-68
2022/10/04 09:57:40;;;;;;;4.22;3.75;;;18.40;92.80;;;;;;5021019;28;20248;-68
2022/10/04 10:00:23;;;;;;;3.25;2.95;;;18.30;92.50;;;;;;5029945;28;20210;-68
2022/10/04 10:03:14;;;;;;;4.88;3.20;;;18.20;92.80;;;;;;5027900;28;20189;-69
2022/10/04 10:06:15;;;;;;;3.60;3.17;;;18.00;92.50;;;;;;5024689;28;20245;-69
2022/10/04 10:08:52;;;;;;;5.35;3.40;;;17.90;93.00;;;;;;5030816;28;20185;-69
2022/10/04 10:15:21;;;;;;;4.00;3.60;;;17.60;93.50;;;;;;5023394;28;20209;-69
2022/10/04 10:17:56;;;;;;;4.70;3.60;;;17.50;93.60;;;;;;5028000;28;20285;-69
2022/10/04 10:21:06;;;;;;;3.75;3.30;;;17.50;94.10;;;;;;5029254;28;20201;-70
2022/10/04 10:24:16;;;;;;;4.43;3.42;;;17.30;94.50;;;;;;5030363;28;20548;-69
2022/10/04 10:26:46;;;;;;;4.05;3.65;;;17.30;95.00;;;;;;5006204;28;20632;-69
2022/10/04 10:29:20;;;;;;;3.35;3.05;;;16.90;95.40;;;;;;5019543;28;20274;-69
2022/10/04 10:32:06;;;;;;;4.93;4.00;;;17.10;95.90;;;;;;5030539;28;20186;-69
2022/10/04 10:35:16;;;;;;;4.07;3.47;;;17.20;95.90;;;;;;5024543;28;20185;-69
2022/10/04 10:38:19;;;;;;;5.35;4.15;;;17.30;95.60;;;;;;5002877;28;20268;-68
2022/10/04 10:41:06;;;;;;;3.15;2.92;;;17.60;95.80;;;;;;5033671;28;20209;-67
2022/10/04 10:44:10;;;;;;;3.80;3.50;;;17.70;95.30;;;;;;5035395;28;20612;-70
2022/10/04 10:47:00;;;;;;;4.05;3.63;;;17.60;94.90;;;;;;5026939;28;20201;-68
2022/10/04 10:49:44;;;;;;;3.88;3.47;;;17.80;94.90;;;;;;5030728;28;20194;-68
2022/10/04 10:52:28;;;;;;;4.38;3.90;;;18.10;94.60;;;;;;5025833;28;20261;-66
2022/10/04 10:55:21;;;;;;;6.30;3.60;;;18.50;94.20;;;;;;5031712;28;20191;-67
2022/10/04 10:58:05;;;;;;;4.03;3.63;;;19.00;93.20;;;;;;5024977;28;20201;-68
2022/10/04 11:01:18;;;;;;;4.55;3.35;;;19.30;92.70;;;;;;5032974;28;20240;-67
2022/10/04 11:04:13;;;;;;;3.95;3.60;;;19.40;92.80;;;;;;5026794;28;20190;-63
2022/10/04 11:06:58;;;;;;;3.78;3.30;;;19.30;92.70;;;;;;5029668;28;20600;-65
2022/10/04 11:10:05;;;;;;;4.82;3.58;;;19.10;93.10;;;;;;5029579;28;20307;-63
2022/10/04 11:12:56;;;;;;;3.70;3.38;;;19.00;93.50;;;;;;5025455;28;20273;-67
2022/10/04 11:16:00;;;;;;;4.35;3.40;;;18.90;93.60;;;;;;5026818;28;20336;-65
2022/10/04 11:19:03;;;;;;;5.15;4.07;;;18.70;93.90;;;;;;5029062;28;20204;-67
2022/10/04 11:22:05;;;;;;;4.50;3.70;;;18.50;94.70;;;;;;5033903;28;20320;-66
2022/10/04 11:24:54;;;;;;;3.13;2.92;;;18.60;94.40;;;;;;5035976;28;20177;-70
2022/10/04 11:27:27;;;;;;;3.65;3.35;;;18.70;94.40;;;;;;5030725;28;20186;-70
2022/10/04 11:30:11;;;;;;;4.47;4.07;;;18.70;94.40;;;;;;5031763;28;20190;-64
2022/10/04 11:33:02;;;;;;;3.60;3.30;;;18.60;94.50;;;;;;5031251;28;20216;-67
2022/10/04 11:35:28;;;;;;;5.35;4.07;;;18.60;95.20;;;;;;5027997;28;20200;-68
2022/10/04 11:38:14;;;;;;;6.53;3.50;;;18.60;95.10;;;;;;5030726;28;20182;-63
2022/10/04 11:41:02;;;;;;;4.55;3.17;;;18.60;95.10;;;;;;5031750;28;20209;-74
2022/10/04 11:43:48;;;;;;;3.55;3.25;;;18.60;95.30;;;;;;5022285;28;20295;-73
2022/10/04 11:47:00;;;;;;;3.50;3.20;;;18.40;94.80;;;;;;5028585;28;20205;-70
2022/10/04 11:49:34;;;;;;;3.80;3.17;;;18.60;95.10;;;;;;5009077;28;20221;-72
2022/10/04 11:52:11;;;;;;;5.75;5.05;;;18.70;95.10;;;;;;5028327;28;20203;-66
2022/10/04 11:54:37;;;;;;;3.55;3.25;;;19.20;95.50;;;;;;5030175;28;20178;-61
2022/10/04 11:57:11;;;;;;;4.47;3.40;;;18.80;95.10;;;;;;5024734;28;20661;-61
2022/10/04 11:59:46;;;;;;;3.53;3.20;;;18.80;95.30;;;;;;5027573;28;20206;-67
2022/10/04 12:02:33;;;;;;;4.18;2.97;;;19.00;94.70;;;;;;5031184;28;20178;-68
2022/10/04 12:05:33;;;;;;;4.95;3.10;;;19.20;94.50;;;;;;5033508;28;20205;-69
2022/10/04 12:08:28;;;;;;;4.00;3.47;;;19.00;94.50;;;;;;5030987;28;20677;-65
2022/10/04 12:11:22;;;;;;;3.22;2.75;;;19.30;94.30;;;;;;5029507;28;20202;-68
2022/10/04 12:14:09;;;;;;;4.50;3.47;;;19.40;94.50;;;;;;5024632;28;20178;-70
2022/10/04 12:16:48;;;;;;;6.43;3.95;;;19.40;94.50;;;;;;5030665;28;20205;-62
2022/10/04 12:19:38;;;;;;;3.42;3.22;;;19.50;94.50;;;;;;5024132;28;20217;-72
2022/10/04 12:22:31;;;;;;;3.55;3.15;;;19.60;94.20;;;;;;5019046;28;20240;-62
2022/10/04 12:24:58;;;;;;;4.45;3.38;;;19.70;93.90;;;;;;5026000;28;20217;-70
2022/10/04 12:27:44;;;;;;;4.22;3.25;;;19.60;94.00;;;;;;5029455;28;20663;-71
2022/10/04 12:30:22;;;;;;;4.68;3.30;;;19.80;94.10;;;;;;5029577;28;20194;-67
2022/10/04 12:33:13;;;;;;;3.60;3.28;;;20.00;93.80;;;;;;5029865;28;20306;-68
2022/10/04 12:36:00;;;;;;;4.05;3.20;;;20.20;93.00;;;;;;5027961;28;20210;-68
2022/10/04 12:38:31;;;;;;;3.35;2.92;;;20.20;93.20;;;;;;5030155;28;20194;-67
2022/10/04 12:41:00;;;;;;;5.05;3.70;;;20.20;93.00;;;;;;5026554;28;20229;-67
2022/10/04 12:43:40;;;;;;;3.85;3.35;;;20.20;93.10;;;;;;5027152;28;20182;-67
2022/10/04 12:46:25;;;;;;;3.17;2.83;;;20.50;92.90;;;;;;5024577;28;20538;-67
2022/10/04 12:49:06;;;;;;;3.67;3.13;;;20.60;93.10;;;;;;5027271;28;20554;-68
2022/10/04 12:52:00;;;;;;;5.50;3.00;;;20.30;93.10;;;;;;5030363;28;20655;-68
2022/10/04 12:54:33;;;;;;;2.90;2.70;;;20.20;92.20;;;;;;5024694;28;20252;-69
2022/10/04 12:57:32;;;;;;;3.17;2.85;;;20.20;92.60;;;;;;5027868;28;20202;-68
2022/10/04 13:00:13;;;;;;;3.00;2.67;;;20.20;92.30;;;;;;5029501;28;20236;-66
2022/10/04 13:03:03;;;;;;;2.72;2.45;;;20.10;92.10;;;;;;5024887;28;20546;-67
2022/10/04 13:05:50;;;;;;;3.40;2.50;;;20.70;92.30;;;;;;5024377;28;20308;-67
2022/10/04 13:08:30;;;;;;;2.97;2.65;;;20.10;92.00;;;;;;5028765;28;20182;-69
2022/10/04 13:11:17;;;;;;;3.53;2.75;;;20.10;92.30;;;;;;5028024;28;20689;-68
2022/10/04 13:14:02;;;;;;;3.00;2.63;;;20.10;91.80;;;;;;5029638;28;20190;-67
2022/10/04 13:16:36;;;;;;;5.07;2.70;;;20.00;92.00;;;;;;5023712;28;20259;-70
2022/10/04 13:19:36;;;;;;;3.55;3.25;;;20.00;91.40;;;;;;5030104;28;20189;-70
2022/10/04 13:22:17;;;;;;;3.05;2.60;;;19.90;92.20;;;;;;5027163;28;20248;-64
2022/10/04 13:25:03;;;;;;;5.05;3.40;;;19.90;92.60;;;;;;5027504;28;20194;-65
2022/10/04 13:27:37;;;;;;;3.03;2.72;;;20.00;92.70;;;;;;5022090;28;20209;-64
2022/10/04 13:30:49;;;;;;;3.22;2.92;;;20.00;92.20;;;;;;5028767;28;20193;-68
2022/10/04 13:33:33;;;;;;;4.03;2.65;;;20.10;92.30;;;;;;5007068;28;20245;-65
2022/10/04 13:36:28;;;;;;;3.15;2.88;;;20.10;92.30;;;;;;4995046;28;20217;-66
2022/10/04 13:39:15;;;;;;;3.40;3.17;;;20.00;91.90;;;;;;5023228;28;20248;-67
2022/10/04 13:42:11;;;;;;;3.67;3.20;;;20.00;92.30;;;;;;5021943;28;20559;-68
2022/10/04 13:45:23;;;;;;;2.67;2.47;;;20.10;93.00;;;;;;5029879;28;20658;-63
2022/10/04 13:48:23;;;;;;;3.20;2.55;;;20.20;93.00;;;;;;5028202;28;20284;-62
2022/10/04 13:50:57;;;;;;;3.95;2.42;;;20.10;92.00;;;;;;5022383;28;20182;-65
2022/10/04 13:56:48;;;;;;;4.95;3.30;;;20.20;91.00;;;;;;5022687;28;20205;-65
2022/10/04 13:59:22;;;;;;;4.00;3.70;;;20.20;91.70;;;;;;5031589;28;20288;-65
2022/10/04 14:02:16;;;;;;;4.35;2.90;;;20.20;92.40;;;;;;5028262;28;20182;-66
2022/10/04 14:04:56;;;;;;;4.93;3.60;;;20.20;92.70;;;;;;5027875;28;20231;-67
2022/10/04 14:07:47;;;;;;;3.83;3.53;;;20.50;92.40;;;;;;5025988;28;20182;-65
2022/10/04 14:10:37;;;;;;;2.92;2.67;;;20.10;92.70;;;;;;5024388;28;20301;-66
2022/10/04 14:13:29;;;;;;;3.88;3.50;;;19.90;91.60;;;;;;5019849;28;20193;-67